createdAt,value
2016-09-21T00:00:44.725Z,15.2
2016-09-21T00:01:44.708Z,15.16
2016-09-21T00:02:45.026Z,15.25
2016-09-21T00:03:44.993Z,15.12
2016-09-21T00:04:44.665Z,15.24
2016-09-21T00:05:44.960Z,15.2
2016-09-21T00:06:44.616Z,15.17
2016-09-21T00:07:44.617Z,15.14
2016-09-21T00:08:44.603Z,15.13
2016-09-21T00:09:44.570Z,15.13
2016-09-21T00:10:44.557Z,15.1
2016-09-21T00:11:44.216Z,15.21
2016-09-21T00:12:44.850Z,15.13
2016-09-21T00:13:44.516Z,15.13
2016-09-21T00:14:44.807Z,15.1
2016-09-21T00:15:44.475Z,15.17
2016-09-21T00:16:44.135Z,15.09
2016-09-21T00:17:44.453Z,15.12
2016-09-21T00:18:44.762Z,15.1
2016-09-21T00:19:44.413Z,15.03
2016-09-21T00:20:44.718Z,15.07
2016-09-21T00:21:44.695Z,14.94
2016-09-21T00:22:44.680Z,14.95
2016-09-21T00:23:44.665Z,15.03
2016-09-21T00:24:44.413Z,14.89
2016-09-21T00:25:44.317Z,14.95
2016-09-21T00:26:43.973Z,15
2016-09-21T00:27:44.282Z,14.98
2016-09-21T00:28:43.944Z,14.96
2016-09-21T00:29:44.247Z,14.84
2016-09-21T00:30:43.910Z,14.89
2016-09-21T00:31:44.527Z,14.82
2016-09-21T00:32:44.516Z,14.79
2016-09-21T00:33:43.857Z,14.82
2016-09-21T00:34:44.494Z,14.72
2016-09-21T00:35:43.824Z,14.66
2016-09-21T00:36:44.446Z,14.65
2016-09-21T00:37:44.110Z,14.69
2016-09-21T00:38:44.109Z,14.69
2016-09-21T00:39:44.392Z,14.6
2016-09-21T00:40:43.754Z,14.69
2016-09-21T00:41:44.363Z,14.58
2016-09-21T00:42:44.039Z,14.54
2016-09-21T00:43:44.336Z,14.51
2016-09-21T00:44:44.337Z,14.46
2016-09-21T00:45:43.985Z,14.48
2016-09-21T00:46:44.286Z,14.54
2016-09-21T00:47:44.276Z,14.62
2016-09-21T00:48:44.259Z,14.5
2016-09-21T00:49:44.230Z,14.54
2016-09-21T00:50:43.901Z,14.53
2016-09-21T00:51:44.195Z,14.5
2016-09-21T00:52:44.196Z,14.57
2016-09-21T00:53:43.533Z,14.51
2016-09-21T00:54:44.151Z,14.48
2016-09-21T00:55:43.811Z,14.51
2016-09-21T00:56:43.803Z,14.44
2016-09-21T00:57:43.773Z,14.46
2016-09-21T00:58:44.086Z,14.48
2016-09-21T00:59:43.739Z,14.48
2016-09-21T01:00:44.064Z,14.44
2016-09-21T01:01:44.035Z,14.39
2016-09-21T01:02:43.380Z,14.46
2016-09-21T01:03:43.671Z,14.47
2016-09-21T01:04:43.981Z,14.36
2016-09-21T01:05:43.968Z,14.44
2016-09-21T01:06:43.951Z,14.32
2016-09-21T01:07:43.943Z,14.36
2016-09-21T01:08:43.591Z,14.4
2016-09-21T01:09:43.904Z,14.38
2016-09-21T01:10:43.574Z,14.39
2016-09-21T01:11:43.551Z,14.35
2016-09-21T01:12:43.537Z,14.38
2016-09-21T01:13:43.510Z,14.29
2016-09-21T01:14:43.176Z,14.38
2016-09-21T01:15:43.473Z,14.38
2016-09-21T01:16:43.791Z,14.33
2016-09-21T01:17:43.493Z,14.25
2016-09-21T01:18:43.434Z,14.38
2016-09-21T01:19:43.415Z,14.29
2016-09-21T01:20:43.720Z,14.3
2016-09-21T01:21:43.688Z,14.36
2016-09-21T01:22:43.350Z,14.3
2016-09-21T01:23:43.674Z,14.36
2016-09-21T01:24:43.665Z,14.32
2016-09-21T01:25:43.644Z,14.26
2016-09-21T01:26:43.306Z,14.26
2016-09-21T01:27:43.596Z,14.33
2016-09-21T01:28:43.578Z,14.26
2016-09-21T01:29:43.555Z,14.18
2016-09-21T01:30:43.548Z,14.22
2016-09-21T01:31:43.253Z,14.17
2016-09-21T01:32:43.197Z,14.22
2016-09-21T01:33:43.485Z,14.17
2016-09-21T01:34:43.484Z,14.21
2016-09-21T01:35:43.574Z,14.14
2016-09-21T01:36:43.127Z,14.15
2016-09-21T01:37:43.424Z,14.14
2016-09-21T01:38:43.094Z,14.08
2016-09-21T01:39:43.082Z,14.07
2016-09-21T01:40:43.165Z,14.1
2016-09-21T01:41:42.723Z,14.14
2016-09-21T01:42:43.345Z,14.07
2016-09-21T01:43:43.324Z,14.08
2016-09-21T01:44:43.315Z,14.07
2016-09-21T01:45:43.294Z,14.05
2016-09-21T01:46:43.367Z,14
2016-09-21T01:47:42.601Z,14
2016-09-21T01:48:42.969Z,13.95
2016-09-21T01:49:43.223Z,14.11
2016-09-21T01:50:42.937Z,13.97
2016-09-21T01:51:43.325Z,13.97
2016-09-21T01:52:43.234Z,14.05
2016-09-21T01:53:43.336Z,13.96
2016-09-21T01:54:43.200Z,13.96
2016-09-21T01:55:43.164Z,13.93
2016-09-21T01:56:42.780Z,13.92
2016-09-21T01:57:42.772Z,14.08
2016-09-21T01:58:42.752Z,13.99
2016-09-21T01:59:43.066Z,13.96
2016-09-21T02:00:43.036Z,13.88
2016-09-21T02:01:42.384Z,13.9
2016-09-21T02:02:43.053Z,13.85
2016-09-21T02:03:42.993Z,13.8
2016-09-21T02:04:42.975Z,13.81
2016-09-21T02:05:42.624Z,13.88
2016-09-21T02:06:42.308Z,13.84
2016-09-21T02:07:42.591Z,13.85
2016-09-21T02:08:42.906Z,13.82
2016-09-21T02:09:42.556Z,13.88
2016-09-21T02:10:42.887Z,13.78
2016-09-21T02:11:42.984Z,13.84
2016-09-21T02:12:42.507Z,13.78
2016-09-21T02:13:42.910Z,13.84
2016-09-21T02:14:42.472Z,13.8
2016-09-21T02:15:42.826Z,13.77
2016-09-21T02:16:42.752Z,13.84
2016-09-21T02:17:42.743Z,13.82
2016-09-21T02:18:42.091Z,13.66
2016-09-21T02:19:42.757Z,13.75
2016-09-21T02:20:42.695Z,13.75
2016-09-21T02:21:42.683Z,13.67
2016-09-21T02:22:42.657Z,13.74
2016-09-21T02:23:42.317Z,13.74
2016-09-21T02:24:42.624Z,13.74
2016-09-21T02:25:42.597Z,13.74
2016-09-21T02:26:41.947Z,13.65
2016-09-21T02:27:42.615Z,13.74
2016-09-21T02:28:42.237Z,13.71
2016-09-21T02:29:42.218Z,13.65
2016-09-21T02:30:42.202Z,13.65
2016-09-21T02:31:42.178Z,13.56
2016-09-21T02:32:42.158Z,13.57
2016-09-21T02:33:42.453Z,13.52
2016-09-21T02:34:42.449Z,13.59
2016-09-21T02:35:41.784Z,13.56
2016-09-21T02:36:42.407Z,13.56
2016-09-21T02:37:42.072Z,13.55
2016-09-21T02:38:42.075Z,13.59
2016-09-21T02:39:42.374Z,13.49
2016-09-21T02:40:42.346Z,13.53
2016-09-21T02:41:41.678Z,13.49
2016-09-21T02:42:41.987Z,13.45
2016-09-21T02:43:41.972Z,13.52
2016-09-21T02:44:41.950Z,13.45
2016-09-21T02:45:41.946Z,13.45
2016-09-21T02:46:41.927Z,13.44
2016-09-21T02:47:42.273Z,13.45
2016-09-21T02:48:41.879Z,13.49
2016-09-21T02:49:41.976Z,13.44
2016-09-21T02:50:41.844Z,13.48
2016-09-21T02:51:41.873Z,13.45
2016-09-21T02:52:42.141Z,13.44
2016-09-21T02:53:42.213Z,13.4
2016-09-21T02:54:42.101Z,13.38
2016-09-21T02:55:41.802Z,13.44
2016-09-21T02:56:41.757Z,13.29
2016-09-21T02:57:42.088Z,13.38
2016-09-21T02:58:41.707Z,13.29
2016-09-21T02:59:42.028Z,13.37
2016-09-21T03:00:41.357Z,13.35
2016-09-21T03:01:41.998Z,13.23
2016-09-21T03:02:41.646Z,13.45
2016-09-21T03:03:41.947Z,13.63
2016-09-21T03:04:41.607Z,13.48
2016-09-21T03:05:41.936Z,13.45
2016-09-21T03:06:41.905Z,13.4
2016-09-21T03:07:41.876Z,13.31
2016-09-21T03:08:41.851Z,13.29
2016-09-21T03:09:41.838Z,13.31
2016-09-21T03:10:41.835Z,13.31
2016-09-21T03:11:41.808Z,13.4
2016-09-21T03:12:41.795Z,13.4
2016-09-21T03:13:41.769Z,13.26
2016-09-21T03:14:41.864Z,13.18
2016-09-21T03:15:41.752Z,13.21
2016-09-21T03:16:41.079Z,13.22
2016-09-21T03:17:41.694Z,13.18
2016-09-21T03:18:41.363Z,13.28
2016-09-21T03:19:41.681Z,13.19
2016-09-21T03:20:41.671Z,13.22
2016-09-21T03:21:41.679Z,13.22
2016-09-21T03:22:41.617Z,13.21
2016-09-21T03:23:41.592Z,13.16
2016-09-21T03:24:41.581Z,13.1
2016-09-21T03:25:41.583Z,13.21
2016-09-21T03:26:41.548Z,13.18
2016-09-21T03:27:41.772Z,13.19
2016-09-21T03:28:41.178Z,13.21
2016-09-21T03:29:41.553Z,13.22
2016-09-21T03:30:41.144Z,13.22
2016-09-21T03:31:41.459Z,13.07
2016-09-21T03:32:41.109Z,13.1
2016-09-21T03:33:41.419Z,13.08
2016-09-21T03:34:41.077Z,13.14
2016-09-21T03:35:41.397Z,13.16
2016-09-21T03:36:41.372Z,13.15
2016-09-21T03:37:41.359Z,13.18
2016-09-21T03:38:41.015Z,13.15
2016-09-21T03:39:41.006Z,13.14
2016-09-21T03:40:41.286Z,13.14
2016-09-21T03:41:40.634Z,13.08
2016-09-21T03:42:40.949Z,13.15
2016-09-21T03:43:41.236Z,13.16
2016-09-21T03:44:41.287Z,13.06
2016-09-21T03:45:41.209Z,13.1
2016-09-21T03:46:41.181Z,13.15
2016-09-21T03:47:41.168Z,13.07
2016-09-21T03:48:40.846Z,13.03
2016-09-21T03:49:41.137Z,13.1
2016-09-21T03:50:41.117Z,13.07
2016-09-21T03:51:41.108Z,13.15
2016-09-21T03:52:40.756Z,13.04
2016-09-21T03:53:41.053Z,13.1
2016-09-21T03:54:40.734Z,13.15
2016-09-21T03:55:41.024Z,13.11
2016-09-21T03:56:40.996Z,13.11
2016-09-21T03:57:40.654Z,13.06
2016-09-21T03:58:40.970Z,13.11
2016-09-21T03:59:40.936Z,13.14
2016-09-21T04:00:40.939Z,13.07
2016-09-21T04:01:40.596Z,13.11
2016-09-21T04:02:40.887Z,13.06
2016-09-21T04:03:40.879Z,12.98
2016-09-21T04:04:40.543Z,12.92
2016-09-21T04:05:40.540Z,12.98
2016-09-21T04:06:40.845Z,13.06
2016-09-21T04:07:40.499Z,13.1
2016-09-21T04:08:40.480Z,13.04
2016-09-21T04:09:40.771Z,13
2016-09-21T04:10:40.785Z,12.88
2016-09-21T04:11:40.740Z,12.98
2016-09-21T04:12:40.736Z,12.86
2016-09-21T04:13:40.397Z,12.97
2016-09-21T04:14:40.701Z,12.96
2016-09-21T04:15:40.361Z,12.96
2016-09-21T04:16:40.666Z,12.98
2016-09-21T04:17:40.632Z,12.94
2016-09-21T04:18:40.310Z,12.94
2016-09-21T04:19:40.365Z,12.98
2016-09-21T04:20:40.590Z,12.96
2016-09-21T04:21:40.256Z,12.83
2016-09-21T04:22:40.240Z,12.82
2016-09-21T04:23:40.544Z,12.86
2016-09-21T04:24:40.513Z,12.86
2016-09-21T04:25:40.487Z,12.79
2016-09-21T04:26:40.529Z,12.81
2016-09-21T04:27:40.143Z,12.82
2016-09-21T04:28:40.503Z,12.83
2016-09-21T04:29:40.429Z,12.81
2016-09-21T04:30:40.411Z,12.86
2016-09-21T04:31:39.757Z,12.86
2016-09-21T04:32:40.372Z,12.85
2016-09-21T04:33:40.350Z,12.73
2016-09-21T04:34:40.030Z,12.82
2016-09-21T04:35:40.018Z,12.83
2016-09-21T04:36:39.988Z,12.73
2016-09-21T04:37:40.286Z,12.81
2016-09-21T04:38:40.286Z,12.82
2016-09-21T04:39:39.927Z,12.85
2016-09-21T04:40:39.920Z,12.83
2016-09-21T04:41:40.230Z,12.83
2016-09-21T04:42:39.875Z,12.73
2016-09-21T04:43:40.179Z,12.76
2016-09-21T04:44:39.540Z,12.76
2016-09-21T04:45:39.831Z,12.78
2016-09-21T04:46:39.499Z,12.79
2016-09-21T04:47:39.795Z,12.7
2016-09-21T04:48:40.090Z,12.81
2016-09-21T04:49:40.069Z,12.79
2016-09-21T04:50:39.417Z,12.76
2016-09-21T04:51:40.046Z,12.73
2016-09-21T04:52:39.691Z,12.74
2016-09-21T04:53:40.008Z,12.82
2016-09-21T04:54:39.659Z,12.7
2016-09-21T04:55:39.661Z,12.73
2016-09-21T04:56:39.310Z,12.73
2016-09-21T04:57:39.603Z,12.73
2016-09-21T04:58:39.947Z,12.68
2016-09-21T04:59:39.587Z,12.73
2016-09-21T05:00:39.570Z,12.64
2016-09-21T05:01:39.870Z,12.68
2016-09-21T05:02:39.842Z,12.61
2016-09-21T05:03:39.820Z,12.55
2016-09-21T05:04:39.489Z,12.5
2016-09-21T05:05:39.470Z,12.55
2016-09-21T05:06:39.779Z,12.5
2016-09-21T05:07:39.109Z,12.49
2016-09-21T05:08:39.777Z,12.4
2016-09-21T05:09:39.779Z,12.43
2016-09-21T05:10:39.457Z,12.49
2016-09-21T05:11:39.354Z,12.53
2016-09-21T05:12:39.352Z,12.48
2016-09-21T05:13:39.322Z,12.53
2016-09-21T05:14:39.621Z,12.55
2016-09-21T05:15:39.663Z,12.61
2016-09-21T05:16:39.277Z,12.5
2016-09-21T05:17:39.567Z,12.48
2016-09-21T05:18:39.564Z,12.52
2016-09-21T05:19:39.548Z,12.5
2016-09-21T05:20:39.197Z,12.57
2016-09-21T05:21:39.501Z,12.58
2016-09-21T05:22:39.161Z,12.6
2016-09-21T05:23:39.457Z,12.57
2016-09-21T05:24:39.133Z,12.57
2016-09-21T05:25:39.440Z,12.53
2016-09-21T05:26:39.408Z,12.52
2016-09-21T05:27:39.069Z,12.53
2016-09-21T05:28:39.079Z,12.53
2016-09-21T05:29:39.032Z,12.61
2016-09-21T05:30:39.358Z,12.6
2016-09-21T05:31:39.323Z,12.58
2016-09-21T05:32:39.317Z,12.61
2016-09-21T05:33:38.638Z,12.65
2016-09-21T05:34:39.266Z,12.58
2016-09-21T05:35:38.988Z,12.63
2016-09-21T05:36:39.240Z,12.6
2016-09-21T05:37:38.999Z,12.68
2016-09-21T05:38:38.878Z,12.64
2016-09-21T05:39:38.536Z,12.67
2016-09-21T05:40:38.836Z,12.73
2016-09-21T05:41:39.154Z,12.73
2016-09-21T05:42:38.801Z,12.78
2016-09-21T05:43:39.101Z,12.76
2016-09-21T05:44:38.437Z,12.76
2016-09-21T05:45:38.801Z,12.79
2016-09-21T05:46:38.730Z,12.81
2016-09-21T05:47:38.713Z,12.86
2016-09-21T05:48:38.378Z,12.96
2016-09-21T05:49:38.681Z,13.01
2016-09-21T05:50:38.974Z,13.07
2016-09-21T05:51:38.330Z,13.1
2016-09-21T05:52:38.934Z,13.11
2016-09-21T05:53:38.928Z,13.15
2016-09-21T05:54:38.911Z,13.19
2016-09-21T05:55:38.573Z,13.19
2016-09-21T05:56:38.551Z,13.15
2016-09-21T05:57:38.577Z,13.25
2016-09-21T05:58:38.837Z,13.19
2016-09-21T05:59:38.961Z,13.19
2016-09-21T06:00:38.153Z,13.33
2016-09-21T06:01:38.777Z,13.47
2016-09-21T06:02:38.773Z,13.47
2016-09-21T06:03:38.427Z,13.45
2016-09-21T06:04:38.751Z,13.45
2016-09-21T06:05:38.715Z,13.42
2016-09-21T06:06:38.690Z,13.4
2016-09-21T06:07:38.670Z,13.45
2016-09-21T06:08:38.653Z,13.53
2016-09-21T06:09:38.634Z,13.48
2016-09-21T06:10:38.619Z,13.63
2016-09-21T06:11:38.286Z,13.55
2016-09-21T06:12:38.280Z,13.59
2016-09-21T06:13:38.566Z,13.59
2016-09-21T06:14:38.567Z,13.65
2016-09-21T06:15:38.540Z,13.67
2016-09-21T06:16:38.520Z,13.82
2016-09-21T06:17:38.495Z,13.67
2016-09-21T06:18:38.169Z,13.74
2016-09-21T06:19:38.169Z,13.63
2016-09-21T06:20:38.136Z,13.65
2016-09-21T06:21:38.120Z,13.74
2016-09-21T06:22:38.093Z,13.71
2016-09-21T06:23:38.411Z,13.67
2016-09-21T06:24:38.417Z,13.81
2016-09-21T06:25:38.048Z,13.84
2016-09-21T06:26:38.028Z,13.9
2016-09-21T06:27:37.696Z,13.89
2016-09-21T06:28:37.997Z,13.93
2016-09-21T06:29:38.288Z,13.89
2016-09-21T06:30:38.283Z,13.99
2016-09-21T06:31:38.261Z,14.1
2016-09-21T06:32:38.240Z,14.14
2016-09-21T06:33:37.582Z,14.11
2016-09-21T06:34:37.879Z,14.17
2016-09-21T06:35:37.876Z,14.26
2016-09-21T06:36:37.861Z,14.33
2016-09-21T06:37:39.119Z,14.36
2016-09-21T06:38:37.812Z,14.38
2016-09-21T06:39:38.122Z,14.48
2016-09-21T06:40:37.577Z,14.48
2016-09-21T06:41:37.445Z,14.58
2016-09-21T06:42:37.755Z,14.62
2016-09-21T06:43:37.738Z,14.8
2016-09-21T06:44:38.145Z,14.91
2016-09-21T06:45:37.706Z,15.09
2016-09-21T06:46:38.007Z,15.5
2016-09-21T06:47:37.671Z,16.32
2016-09-21T06:48:37.983Z,17.31
2016-09-21T06:49:37.968Z,18.1
2016-09-21T06:50:37.416Z,18.62
2016-09-21T06:51:37.597Z,18.75
2016-09-21T06:52:37.278Z,18.99
2016-09-21T06:53:37.905Z,19.06
2016-09-21T06:54:37.888Z,19.07
2016-09-21T06:55:37.891Z,18.97
2016-09-21T06:56:37.869Z,18.93
2016-09-21T06:57:37.503Z,19.21
2016-09-21T06:58:37.607Z,19.3
2016-09-21T06:59:37.487Z,19.49
2016-09-21T07:00:37.484Z,19.49
2016-09-21T07:01:37.808Z,19.37
2016-09-21T07:02:37.845Z,19.41
2016-09-21T07:03:37.425Z,19.46
2016-09-21T07:04:37.784Z,19.37
2016-09-21T07:05:37.728Z,19.69
2016-09-21T07:06:37.700Z,19.95
2016-09-21T07:07:37.806Z,20.36
2016-09-21T07:08:37.682Z,20.4
2016-09-21T07:09:37.337Z,20.54
2016-09-21T07:10:37.438Z,20.73
2016-09-21T07:11:37.309Z,21.11
2016-09-21T07:12:37.645Z,21.28
2016-09-21T07:13:37.291Z,21.49
2016-09-21T07:14:37.653Z,21.66
2016-09-21T07:15:37.277Z,21.71
2016-09-21T07:16:37.666Z,21.84
2016-09-21T07:17:37.297Z,21.96
2016-09-21T07:18:37.240Z,21.86
2016-09-21T07:19:36.888Z,21.73
2016-09-21T07:20:36.934Z,21.83
2016-09-21T07:21:37.182Z,21.83
2016-09-21T07:22:37.533Z,22.1
2016-09-21T07:23:37.481Z,22.11
2016-09-21T07:24:37.458Z,22.02
2016-09-21T07:25:36.922Z,21.71
2016-09-21T07:26:37.124Z,21.76
2016-09-21T07:27:37.116Z,21.66
2016-09-21T07:28:37.419Z,21.46
2016-09-21T07:29:37.413Z,21.21
2016-09-21T07:30:37.422Z,20.35
2016-09-21T07:31:37.062Z,20.26
2016-09-21T07:32:37.057Z,20.44
2016-09-21T07:33:37.053Z,20.41
2016-09-21T07:34:37.373Z,19.92
2016-09-21T07:35:37.344Z,20.07
2016-09-21T07:36:37.174Z,20.38
2016-09-21T07:37:37.036Z,20.44
2016-09-21T07:38:37.305Z,20.66
2016-09-21T07:39:37.313Z,20.47
2016-09-21T07:40:36.995Z,20.4
2016-09-21T07:41:37.284Z,20.1
2016-09-21T07:42:36.957Z,20.33
2016-09-21T07:43:36.956Z,20.63
2016-09-21T07:44:37.264Z,21.03
2016-09-21T07:45:36.933Z,21.31
2016-09-21T07:46:36.973Z,21.59
2016-09-21T07:47:37.231Z,21.65
2016-09-21T07:48:37.262Z,22.11
2016-09-21T07:49:37.230Z,22.4
2016-09-21T07:50:37.260Z,22.65
2016-09-21T07:51:37.215Z,22.45
2016-09-21T07:52:37.208Z,22.42
2016-09-21T07:53:36.870Z,22.74
2016-09-21T07:54:36.881Z,23.16
2016-09-21T07:55:36.872Z,23.25
2016-09-21T07:56:36.868Z,23.75
2016-09-21T07:57:37.190Z,23.36
2016-09-21T07:58:36.953Z,23.7
2016-09-21T07:59:37.164Z,24
2016-09-21T08:00:36.533Z,24.64
2016-09-21T08:01:36.838Z,24.74
2016-09-21T08:02:36.853Z,24.9
2016-09-21T08:03:36.822Z,25.36
2016-09-21T08:04:37.194Z,25.81
2016-09-21T08:05:37.138Z,26.24
2016-09-21T08:06:36.903Z,26.33
2016-09-21T08:07:36.818Z,26.49
2016-09-21T08:08:36.821Z,26.69
2016-09-21T08:09:36.501Z,26.84
2016-09-21T08:10:36.808Z,26.81
2016-09-21T08:11:37.134Z,26.44
2016-09-21T08:12:36.518Z,25.82
2016-09-21T08:13:36.807Z,25.66
2016-09-21T08:14:36.479Z,25.37
2016-09-21T08:15:37.116Z,25.44
2016-09-21T08:16:36.792Z,25.18
2016-09-21T08:17:37.110Z,24.92
2016-09-21T08:18:37.128Z,24.93
2016-09-21T08:19:36.467Z,25.42
2016-09-21T08:20:37.157Z,25.39
2016-09-21T08:21:37.105Z,25.47
2016-09-21T08:22:37.195Z,25.4
2016-09-21T08:23:36.766Z,25.86
2016-09-21T08:24:37.087Z,25.89
2016-09-21T08:25:36.809Z,25.42
2016-09-21T08:26:37.137Z,25.89
2016-09-21T08:27:36.433Z,25.89
2016-09-21T08:28:37.070Z,26.32
2016-09-21T08:29:37.121Z,26.64
2016-09-21T08:30:36.758Z,26.85
2016-09-21T08:31:36.750Z,26.63
2016-09-21T08:32:36.421Z,25.85
2016-09-21T08:33:36.750Z,25.71
2016-09-21T08:34:37.055Z,24.74
2016-09-21T08:35:36.427Z,24.71
2016-09-21T08:36:36.749Z,24.71
2016-09-21T08:37:37.093Z,25.17
2016-09-21T08:38:36.800Z,25.66
2016-09-21T08:39:37.290Z,25.92
2016-09-21T08:40:36.726Z,26.04
2016-09-21T08:41:36.410Z,25.64
2016-09-21T08:42:37.040Z,25.45
2016-09-21T08:43:36.719Z,25.81
2016-09-21T08:44:36.814Z,25.91
2016-09-21T08:45:36.705Z,26.1
2016-09-21T08:46:37.039Z,26.38
2016-09-21T08:47:37.026Z,26.44
2016-09-21T08:48:36.708Z,26.79
2016-09-21T08:49:37.036Z,26.89
2016-09-21T08:50:37.036Z,27.21
2016-09-21T08:51:36.712Z,27.34
2016-09-21T08:52:37.036Z,26.89
2016-09-21T08:53:37.029Z,26.97
2016-09-21T08:54:36.759Z,26.88
2016-09-21T08:55:36.687Z,27.09
2016-09-21T08:56:37.006Z,27.18
2016-09-21T08:57:36.697Z,27.38
2016-09-21T08:58:37.018Z,27.52
2016-09-21T08:59:37.009Z,27.28
2016-09-21T09:00:37.028Z,27.07
2016-09-21T09:01:36.686Z,27.46
2016-09-21T09:02:36.367Z,27.6
2016-09-21T09:03:37.009Z,27.34
2016-09-21T09:04:36.686Z,26.1
2016-09-21T09:05:36.689Z,24.89
2016-09-21T09:06:36.372Z,25.44
2016-09-21T09:07:37.004Z,26.11
2016-09-21T09:08:36.667Z,26.74
2016-09-21T09:09:36.675Z,27.06
2016-09-21T09:10:36.684Z,27.43
2016-09-21T09:11:37.016Z,27.84
2016-09-21T09:12:36.678Z,28.08
2016-09-21T09:13:36.675Z,28.05
2016-09-21T09:14:36.996Z,27.87
2016-09-21T09:15:36.997Z,28.12
2016-09-21T09:16:36.683Z,28.25
2016-09-21T09:17:36.733Z,28.34
2016-09-21T09:18:36.670Z,28.46
2016-09-21T09:19:36.337Z,28.43
2016-09-21T09:20:36.679Z,28.52
2016-09-21T09:21:36.687Z,28.43
2016-09-21T09:22:36.677Z,28.13
2016-09-21T09:23:37.047Z,27.94
2016-09-21T09:24:36.658Z,28.23
2016-09-21T09:25:36.992Z,28.31
2016-09-21T09:26:36.350Z,28.33
2016-09-21T09:27:36.991Z,28.56
2016-09-21T09:28:37.033Z,28.7
2016-09-21T09:29:36.351Z,28.43
2016-09-21T09:30:36.678Z,27.96
2016-09-21T09:31:36.669Z,27.78
2016-09-21T09:32:36.999Z,28
2016-09-21T09:33:36.994Z,28.19
2016-09-21T09:34:36.766Z,26.82
2016-09-21T09:35:36.987Z,27.11
2016-09-21T09:36:36.658Z,27.43
2016-09-21T09:37:36.978Z,27.75
2016-09-21T09:38:36.988Z,27.98
2016-09-21T09:39:36.659Z,28.24
2016-09-21T09:40:36.988Z,28
2016-09-21T09:41:36.656Z,27.3
2016-09-21T09:42:36.982Z,27.37
2016-09-21T09:43:36.972Z,26.1
2016-09-21T09:44:37.015Z,26.3
2016-09-21T09:45:36.647Z,26.44
2016-09-21T09:46:37.082Z,27.15
2016-09-21T09:47:36.325Z,27.57
2016-09-21T09:48:37.017Z,28.18
2016-09-21T09:49:36.647Z,28.28
2016-09-21T09:50:36.962Z,28.47
2016-09-21T09:51:36.637Z,28.8
2016-09-21T09:52:36.657Z,29.05
2016-09-21T09:53:36.975Z,28.83
2016-09-21T09:54:36.632Z,28.87
2016-09-21T09:55:36.629Z,28.31
2016-09-21T09:56:36.969Z,27.04
2016-09-21T09:57:36.642Z,27.03
2016-09-21T09:58:36.969Z,26.81
2016-09-21T09:59:36.954Z,27.49
2016-09-21T10:00:36.942Z,27.74
2016-09-21T10:01:36.665Z,28.08
2016-09-21T10:02:36.633Z,28.13
2016-09-21T10:03:36.631Z,28.33
2016-09-21T10:04:36.937Z,28.38
2016-09-21T10:05:36.622Z,28.77
2016-09-21T10:06:36.956Z,28.82
2016-09-21T10:07:36.727Z,28.55
2016-09-21T10:08:36.933Z,28.06
2016-09-21T10:09:36.920Z,28.27
2016-09-21T10:10:36.924Z,27.76
2016-09-21T10:11:36.917Z,27.37
2016-09-21T10:12:36.938Z,27.71
2016-09-21T10:13:36.929Z,27.87
2016-09-21T10:14:36.991Z,28.27
2016-09-21T10:15:36.933Z,28.3
2016-09-21T10:16:36.590Z,27.68
2016-09-21T10:17:36.915Z,28.09
2016-09-21T10:18:36.259Z,28.53
2016-09-21T10:19:36.911Z,28.83
2016-09-21T10:20:36.941Z,28.34
2016-09-21T10:21:36.564Z,28.28
2016-09-21T10:22:36.889Z,28.5
2016-09-21T10:23:36.569Z,28.35
2016-09-21T10:24:36.238Z,28.79
2016-09-21T10:25:36.562Z,28.53
2016-09-21T10:26:36.229Z,28.58
2016-09-21T10:27:36.860Z,27.76
2016-09-21T10:28:36.856Z,27.81
2016-09-21T10:29:36.221Z,28.13
2016-09-21T10:30:36.860Z,26.85
2016-09-21T10:31:36.855Z,27.33
2016-09-21T10:32:36.542Z,27.78
2016-09-21T10:33:36.511Z,28.38
2016-09-21T10:34:36.584Z,28.79
2016-09-21T10:35:36.823Z,28.86
2016-09-21T10:36:36.181Z,29.17
2016-09-21T10:37:36.826Z,29.2
2016-09-21T10:38:36.591Z,28.13
2016-09-21T10:39:36.808Z,27.63
2016-09-21T10:40:36.805Z,26.82
2016-09-21T10:41:36.472Z,27.04
2016-09-21T10:42:36.805Z,27.33
2016-09-21T10:43:36.800Z,28.05
2016-09-21T10:44:36.483Z,28.53
2016-09-21T10:45:36.787Z,28.77
2016-09-21T10:46:36.786Z,28.45
2016-09-21T10:47:36.474Z,27.78
2016-09-21T10:48:36.450Z,26.08
2016-09-21T10:49:36.434Z,24.75
2016-09-21T10:50:36.437Z,23.66
2016-09-21T10:51:36.440Z,23.95
2016-09-21T10:52:36.737Z,24.21
2016-09-21T10:53:36.732Z,24.32
2016-09-21T10:54:36.401Z,24.03
2016-09-21T10:55:36.729Z,23.63
2016-09-21T10:56:36.722Z,23.99
2016-09-21T10:57:36.391Z,24.69
2016-09-21T10:58:36.691Z,25.7
2016-09-21T10:59:36.370Z,26.54
2016-09-21T11:00:36.373Z,27.23
2016-09-21T11:01:36.365Z,27.46
2016-09-21T11:02:36.365Z,27.03
2016-09-21T11:03:36.682Z,27.19
2016-09-21T11:04:36.662Z,26.78
2016-09-21T11:05:36.651Z,27.41
2016-09-21T11:06:36.319Z,27.96
2016-09-21T11:07:36.340Z,27.41
2016-09-21T11:08:36.310Z,27.9
2016-09-21T11:09:36.320Z,28.19
2016-09-21T11:10:36.314Z,28.37
2016-09-21T11:11:36.631Z,28.28
2016-09-21T11:12:36.603Z,28.23
2016-09-21T11:13:36.286Z,28.13
2016-09-21T11:15:36.602Z,28.64
2016-09-21T11:16:35.937Z,28.33
2016-09-21T11:17:36.256Z,28.55
2016-09-21T11:18:36.255Z,28.05
2016-09-21T11:19:36.575Z,27.57
2016-09-21T11:20:36.248Z,27.69
2016-09-21T11:21:36.546Z,28.16
2016-09-21T11:22:36.544Z,28.15
2016-09-21T11:23:36.210Z,28.42
2016-09-21T11:24:36.204Z,26.84
2016-09-21T11:25:36.510Z,27.11
2016-09-21T11:26:36.513Z,27.5
2016-09-21T11:27:36.193Z,27.93
2016-09-21T11:28:36.496Z,28.52
2016-09-21T11:29:36.176Z,28.86
2016-09-21T11:30:36.481Z,28.82
2016-09-21T11:31:36.177Z,28.86
2016-09-21T11:32:36.161Z,29
2016-09-21T11:33:36.164Z,28.79
2016-09-21T11:34:36.465Z,28.74
2016-09-21T11:35:35.807Z,28.93
2016-09-21T11:36:36.453Z,29.12
2016-09-21T11:37:36.438Z,29.1
2016-09-21T11:38:36.168Z,28.86
2016-09-21T11:39:36.416Z,28.79
2016-09-21T11:40:36.103Z,27.94
2016-09-21T11:41:36.097Z,27.33
2016-09-21T11:42:36.419Z,27.21
2016-09-21T11:43:36.083Z,26.79
2016-09-21T11:44:36.393Z,26.89
2016-09-21T11:45:36.078Z,26.38
2016-09-21T11:46:36.403Z,26.79
2016-09-21T11:47:36.376Z,27.07
2016-09-21T11:48:36.353Z,27.3
2016-09-21T11:49:36.039Z,27.53
2016-09-21T11:50:36.027Z,27.04
2016-09-21T11:51:36.011Z,26.84
2016-09-21T11:52:36.341Z,27.07
2016-09-21T11:53:35.693Z,27.37
2016-09-21T11:54:36.335Z,27.74
2016-09-21T11:55:35.994Z,27.98
2016-09-21T11:56:36.079Z,28.55
2016-09-21T11:57:36.311Z,28.71
2016-09-21T11:58:36.289Z,28.18
2016-09-21T11:59:36.294Z,27.78
2016-09-21T12:00:36.283Z,27.97
2016-09-21T12:01:36.275Z,28.3
2016-09-21T12:02:36.259Z,28.53
2016-09-21T12:03:36.263Z,28.53
2016-09-21T12:04:36.271Z,28.35
2016-09-21T12:05:36.308Z,28.24
2016-09-21T12:06:35.919Z,28.56
2016-09-21T12:07:35.713Z,28.8
2016-09-21T12:08:36.223Z,28.9
2016-09-21T12:09:35.914Z,28.97
2016-09-21T12:10:36.211Z,29.21
2016-09-21T12:11:35.898Z,29.47
2016-09-21T12:12:35.875Z,27.34
2016-09-21T12:13:36.178Z,27.09
2016-09-21T12:14:36.179Z,27.76
2016-09-21T12:15:35.954Z,28.3
2016-09-21T12:16:35.846Z,28.56
2016-09-21T12:17:36.154Z,28.61
2016-09-21T12:18:36.165Z,28.4
2016-09-21T12:19:35.826Z,27.74
2016-09-21T12:20:36.154Z,26.75
2016-09-21T12:21:36.131Z,26.81
2016-09-21T12:22:35.798Z,26.42
2016-09-21T12:23:35.789Z,25.92
2016-09-21T12:24:36.099Z,26.39
2016-09-21T12:25:35.785Z,25.76
2016-09-21T12:26:35.874Z,26.2
2016-09-21T12:27:35.758Z,26.38
2016-09-21T12:28:36.095Z,27.03
2016-09-21T12:29:36.080Z,27.4
2016-09-21T12:30:35.443Z,27.68
2016-09-21T12:31:36.063Z,27.79
2016-09-21T12:32:36.038Z,27.75
2016-09-21T12:33:35.726Z,27.74
2016-09-21T12:34:35.713Z,27.5
2016-09-21T12:35:36.036Z,27.79
2016-09-21T12:36:36.022Z,28.05
2016-09-21T12:37:36.021Z,28.45
2016-09-21T12:38:35.675Z,28.76
2016-09-21T12:39:35.992Z,27.34
2016-09-21T12:40:35.993Z,26.11
2016-09-21T12:41:35.653Z,25.22
2016-09-21T12:42:35.643Z,24.8
2016-09-21T12:43:35.650Z,25.18
2016-09-21T12:44:35.425Z,26.19
2016-09-21T12:45:35.631Z,26.1
2016-09-21T12:46:35.617Z,26.6
2016-09-21T12:47:35.932Z,27.3
2016-09-21T12:48:36.011Z,27.94
2016-09-21T12:49:35.609Z,28.15
2016-09-21T12:50:35.594Z,27.18
2016-09-21T12:51:35.610Z,26.01
2016-09-21T12:52:35.596Z,25.34
2016-09-21T12:53:35.932Z,25.54
2016-09-21T12:54:35.651Z,25.4
2016-09-21T12:55:35.861Z,25.62
2016-09-21T12:56:35.962Z,26.08
2016-09-21T12:57:35.851Z,26.75